sensor_id;sensor_type;location;lat;lon;timestamp;temperature;humidity
25450;DHT22;13371;52.080;5.624;2022-11-21T00:02:24;6.10;99.90
25450;DHT22;13371;52.080;5.624;2022-11-21T00:04:49;6.20;99.90
25450;DHT22;13371;52.080;5.624;2022-11-21T00:07:15;6.30;99.90
25450;DHT22;13371;52.080;5.624;2022-11-21T00:09:40;5.90;99.90
25450;DHT22;13371;52.080;5.624;2022-11-21T00:12:06;6.20;99.90
25450;DHT22;13371;52.080;5.624;2022-11-21T00:14:33;6.40;99.90
25450;DHT22;13371;52.080;5.624;2022-11-21T00:16:58;6.60;99.90
25450;DHT22;13371;52.080;5.624;2022-11-21T00:19:24;6.80;99.90
25450;DHT22;13371;52.080;5.624;2022-11-21T00:21:49;6.00;99.90
25450;DHT22;13371;52.080;5.624;2022-11-21T00:24:15;6.10;99.90
25450;DHT22;13371;52.080;5.624;2022-11-21T00:26:40;6.10;99.90
25450;DHT22;13371;52.080;5.624;2022-11-21T00:29:06;6.00;99.90
25450;DHT22;13371;52.080;5.624;2022-11-21T00:31:31;5.80;99.90
25450;DHT22;13371;52.080;5.624;2022-11-21T00:33:57;6.10;99.90
25450;DHT22;13371;52.080;5.624;2022-11-21T00:36:23;6.50;99.90
25450;DHT22;13371;52.080;5.624;2022-11-21T00:38:48;6.30;99.90
25450;DHT22;13371;52.080;5.624;2022-11-21T00:41:14;6.30;99.90
25450;DHT22;13371;52.080;5.624;2022-11-21T00:43:39;6.50;99.90
25450;DHT22;13371;52.080;5.624;2022-11-21T00:46:05;6.70;99.70
25450;DHT22;13371;52.080;5.624;2022-11-21T00:48:31;5.60;99.90
25450;DHT22;13371;52.080;5.624;2022-11-21T00:50:57;5.40;99.90
25450;DHT22;13371;52.080;5.624;2022-11-21T00:53:24;5.80;99.90
25450;DHT22;13371;52.080;5.624;2022-11-21T00:55:50;6.20;99.90
25450;DHT22;13371;52.080;5.624;2022-11-21T00:58:15;6.40;99.90
25450;DHT22;13371;52.080;5.624;2022-11-21T01:00:41;6.60;99.90
25450;DHT22;13371;52.080;5.624;2022-11-21T01:03:06;6.70;99.70
25450;DHT22;13371;52.080;5.624;2022-11-21T01:05:32;6.50;99.40
25450;DHT22;13371;52.080;5.624;2022-11-21T01:07:57;6.60;99.80
25450;DHT22;13371;52.080;5.624;2022-11-21T01:10:23;6.40;99.60
25450;DHT22;13371;52.080;5.624;2022-11-21T01:12:49;6.40;99.80
25450;DHT22;13371;52.080;5.624;2022-11-21T01:15:14;6.40;99.80
25450;DHT22;13371;52.080;5.624;2022-11-21T01:17:40;6.50;99.70
25450;DHT22;13371;52.080;5.624;2022-11-21T01:20:07;6.30;99.60
25450;DHT22;13371;52.080;5.624;2022-11-21T01:22:32;6.00;99.90
25450;DHT22;13371;52.080;5.624;2022-11-21T01:24:58;6.20;99.90
25450;DHT22;13371;52.080;5.624;2022-11-21T01:27:23;6.00;99.90
25450;DHT22;13371;52.080;5.624;2022-11-21T01:29:49;6.00;99.90
25450;DHT22;13371;52.080;5.624;2022-11-21T01:32:16;5.70;99.90
25450;DHT22;13371;52.080;5.624;2022-11-21T01:34:42;5.50;99.90
25450;DHT22;13371;52.080;5.624;2022-11-21T01:37:07;5.60;99.90
25450;DHT22;13371;52.080;5.624;2022-11-21T01:39:33;5.40;99.90
25450;DHT22;13371;52.080;5.624;2022-11-21T01:41:59;5.60;99.90
25450;DHT22;13371;52.080;5.624;2022-11-21T01:44:26;5.40;99.90
25450;DHT22;13371;52.080;5.624;2022-11-21T01:47:09;5.60;99.90
25450;DHT22;13371;52.080;5.624;2022-11-21T01:49:35;5.80;99.90
25450;DHT22;13371;52.080;5.624;2022-11-21T01:52:12;6.10;99.90
25450;DHT22;13371;52.080;5.624;2022-11-21T01:57:38;6.50;99.90
25450;DHT22;13371;52.080;5.624;2022-11-21T02:00:09;6.60;99.90
25450;DHT22;13371;52.080;5.624;2022-11-21T02:02:36;6.10;99.90
25450;DHT22;13371;52.080;5.624;2022-11-21T02:05:05;6.30;99.90
25450;DHT22;13371;52.080;5.624;2022-11-21T02:07:38;6.40;99.90
25450;DHT22;13371;52.080;5.624;2022-11-21T02:10:05;6.90;99.70
25450;DHT22;13371;52.080;5.624;2022-11-21T02:12:45;6.50;99.00
25450;DHT22;13371;52.080;5.624;2022-11-21T02:15:12;6.30;99.90
25450;DHT22;13371;52.080;5.624;2022-11-21T02:17:38;6.40;99.90
25450;DHT22;13371;52.080;5.624;2022-11-21T02:20:06;6.40;99.40
25450;DHT22;13371;52.080;5.624;2022-11-21T02:25:20;6.20;99.90
25450;DHT22;13371;52.080;5.624;2022-11-21T02:27:48;6.20;99.90
25450;DHT22;13371;52.080;5.624;2022-11-21T02:30:15;6.00;99.80
25450;DHT22;13371;52.080;5.624;2022-11-21T02:32:44;6.20;99.90
25450;DHT22;13371;52.080;5.624;2022-11-21T02:35:16;6.10;99.90
25450;DHT22;13371;52.080;5.624;2022-11-21T02:37:44;6.20;99.90
25450;DHT22;13371;52.080;5.624;2022-11-21T02:40:17;6.40;99.90
25450;DHT22;13371;52.080;5.624;2022-11-21T02:45:38;6.40;99.80
25450;DHT22;13371;52.080;5.624;2022-11-21T02:48:04;6.60;99.70
25450;DHT22;13371;52.080;5.624;2022-11-21T02:50:35;6.40;99.00
25450;DHT22;13371;52.080;5.624;2022-11-21T02:53:02;6.10;99.80
25450;DHT22;13371;52.080;5.624;2022-11-21T02:55:28;6.40;99.90
25450;DHT22;13371;52.080;5.624;2022-11-21T02:57:53;6.50;99.80
25450;DHT22;13371;52.080;5.624;2022-11-21T03:00:20;6.80;99.60
25450;DHT22;13371;52.080;5.624;2022-11-21T03:02:45;6.80;99.10
25450;DHT22;13371;52.080;5.624;2022-11-21T03:05:16;6.40;98.80
25450;DHT22;13371;52.080;5.624;2022-11-21T03:07:42;5.60;99.90
25450;DHT22;13371;52.080;5.624;2022-11-21T03:10:08;5.20;99.90
25450;DHT22;13371;52.080;5.624;2022-11-21T03:12:38;5.20;99.90
25450;DHT22;13371;52.080;5.624;2022-11-21T03:15:05;5.80;99.90
25450;DHT22;13371;52.080;5.624;2022-11-21T03:17:32;5.90;99.90
25450;DHT22;13371;52.080;5.624;2022-11-21T03:19:57;6.20;99.90
25450;DHT22;13371;52.080;5.624;2022-11-21T03:22:23;6.40;99.40
25450;DHT22;13371;52.080;5.624;2022-11-21T03:24:49;6.20;99.30
25450;DHT22;13371;52.080;5.624;2022-11-21T03:27:14;5.40;99.80
25450;DHT22;13371;52.080;5.624;2022-11-21T03:29:40;4.90;99.90
25450;DHT22;13371;52.080;5.624;2022-11-21T03:32:05;4.40;99.90
25450;DHT22;13371;52.080;5.624;2022-11-21T03:34:31;4.60;99.90
25450;DHT22;13371;52.080;5.624;2022-11-21T03:36:56;4.60;99.90
25450;DHT22;13371;52.080;5.624;2022-11-21T03:39:22;3.90;99.90
25450;DHT22;13371;52.080;5.624;2022-11-21T03:41:47;4.50;99.90
25450;DHT22;13371;52.080;5.624;2022-11-21T03:44:13;5.00;99.90
25450;DHT22;13371;52.080;5.624;2022-11-21T03:46:44;5.10;99.90
25450;DHT22;13371;52.080;5.624;2022-11-21T03:49:12;4.90;99.90
25450;DHT22;13371;52.080;5.624;2022-11-21T03:51:38;4.60;99.90
25450;DHT22;13371;52.080;5.624;2022-11-21T03:54:05;4.70;99.90
25450;DHT22;13371;52.080;5.624;2022-11-21T03:56:31;5.00;99.90
25450;DHT22;13371;52.080;5.624;2022-11-21T03:58:56;3.90;99.90
25450;DHT22;13371;52.080;5.624;2022-11-21T04:01:22;4.10;99.90
25450;DHT22;13371;52.080;5.624;2022-11-21T04:03:48;3.80;99.90
25450;DHT22;13371;52.080;5.624;2022-11-21T04:06:16;3.40;99.90
25450;DHT22;13371;52.080;5.624;2022-11-21T04:08:42;4.10;99.90
25450;DHT22;13371;52.080;5.624;2022-11-21T04:11:08;4.40;99.90
25450;DHT22;13371;52.080;5.624;2022-11-21T04:13:34;4.50;99.90
25450;DHT22;13371;52.080;5.624;2022-11-21T04:15:59;4.40;99.90
25450;DHT22;13371;52.080;5.624;2022-11-21T04:18:25;4.70;99.90
25450;DHT22;13371;52.080;5.624;2022-11-21T04:20:57;4.50;99.90
25450;DHT22;13371;52.080;5.624;2022-11-21T04:23:23;4.20;99.90
25450;DHT22;13371;52.080;5.624;2022-11-21T04:25:49;3.30;99.90
25450;DHT22;13371;52.080;5.624;2022-11-21T04:28:15;3.30;99.90
25450;DHT22;13371;52.080;5.624;2022-11-21T04:30:40;3.30;99.90
25450;DHT22;13371;52.080;5.624;2022-11-21T04:33:06;3.60;99.90
25450;DHT22;13371;52.080;5.624;2022-11-21T04:35:31;3.00;99.90
25450;DHT22;13371;52.080;5.624;2022-11-21T04:37:57;3.40;99.90
25450;DHT22;13371;52.080;5.624;2022-11-21T04:40:22;2.70;99.90
25450;DHT22;13371;52.080;5.624;2022-11-21T04:42:48;3.20;99.90
25450;DHT22;13371;52.080;5.624;2022-11-21T04:45:15;3.80;99.90
25450;DHT22;13371;52.080;5.624;2022-11-21T04:47:43;3.80;99.90
25450;DHT22;13371;52.080;5.624;2022-11-21T04:50:11;3.70;99.90
25450;DHT22;13371;52.080;5.624;2022-11-21T04:52:37;3.50;99.90
25450;DHT22;13371;52.080;5.624;2022-11-21T04:55:03;4.10;99.90
25450;DHT22;13371;52.080;5.624;2022-11-21T04:57:29;4.50;99.90
25450;DHT22;13371;52.080;5.624;2022-11-21T04:59:55;4.80;99.90
25450;DHT22;13371;52.080;5.624;2022-11-21T05:02:21;5.20;99.90
25450;DHT22;13371;52.080;5.624;2022-11-21T05:04:47;4.70;99.90
25450;DHT22;13371;52.080;5.624;2022-11-21T05:07:13;4.80;99.90
25450;DHT22;13371;52.080;5.624;2022-11-21T05:09:38;4.90;99.90
25450;DHT22;13371;52.080;5.624;2022-11-21T05:12:04;4.00;99.90
25450;DHT22;13371;52.080;5.624;2022-11-21T05:14:49;3.90;99.90
25450;DHT22;13371;52.080;5.624;2022-11-21T05:17:14;3.60;99.90
25450;DHT22;13371;52.080;5.624;2022-11-21T05:19:40;4.00;99.90
25450;DHT22;13371;52.080;5.624;2022-11-21T05:22:05;4.10;99.90
25450;DHT22;13371;52.080;5.624;2022-11-21T05:24:31;4.50;99.90
25450;DHT22;13371;52.080;5.624;2022-11-21T05:26:57;4.70;99.90
25450;DHT22;13371;52.080;5.624;2022-11-21T05:29:22;5.00;99.90
25450;DHT22;13371;52.080;5.624;2022-11-21T05:31:48;4.80;99.90
25450;DHT22;13371;52.080;5.624;2022-11-21T05:34:13;5.20;99.90
25450;DHT22;13371;52.080;5.624;2022-11-21T05:36:39;5.20;99.90
25450;DHT22;13371;52.080;5.624;2022-11-21T05:39:04;5.30;99.90
25450;DHT22;13371;52.080;5.624;2022-11-21T05:41:30;5.20;99.90
25450;DHT22;13371;52.080;5.624;2022-11-21T05:43:56;5.20;99.90
25450;DHT22;13371;52.080;5.624;2022-11-21T05:46:23;5.30;99.90
25450;DHT22;13371;52.080;5.624;2022-11-21T05:48:51;5.10;99.90
25450;DHT22;13371;52.080;5.624;2022-11-21T05:51:17;5.10;99.90
25450;DHT22;13371;52.080;5.624;2022-11-21T05:53:44;4.60;99.90
25450;DHT22;13371;52.080;5.624;2022-11-21T05:56:12;4.40;99.90
25450;DHT22;13371;52.080;5.624;2022-11-21T05:58:38;4.40;99.90
25450;DHT22;13371;52.080;5.624;2022-11-21T06:01:05;4.80;99.90
25450;DHT22;13371;52.080;5.624;2022-11-21T06:03:34;4.80;99.90
25450;DHT22;13371;52.080;5.624;2022-11-21T06:06:12;5.00;99.90
25450;DHT22;13371;52.080;5.624;2022-11-21T06:08:42;4.60;99.90
25450;DHT22;13371;52.080;5.624;2022-11-21T06:11:10;4.40;99.90
25450;DHT22;13371;52.080;5.624;2022-11-21T06:13:36;4.20;99.90
25450;DHT22;13371;52.080;5.624;2022-11-21T06:16:05;4.20;99.90
25450;DHT22;13371;52.080;5.624;2022-11-21T06:18:37;4.20;99.90
25450;DHT22;13371;52.080;5.624;2022-11-21T06:21:06;4.70;99.90
25450;DHT22;13371;52.080;5.624;2022-11-21T06:23:33;4.90;99.90
25450;DHT22;13371;52.080;5.624;2022-11-21T06:26:01;4.30;99.90
25450;DHT22;13371;52.080;5.624;2022-11-21T06:28:33;4.50;99.90
25450;DHT22;13371;52.080;5.624;2022-11-21T06:31:10;4.60;99.90
25450;DHT22;13371;52.080;5.624;2022-11-21T06:33:37;4.70;99.90
25450;DHT22;13371;52.080;5.624;2022-11-21T06:36:04;4.60;99.90
25450;DHT22;13371;52.080;5.624;2022-11-21T06:38:31;4.80;99.90
25450;DHT22;13371;52.080;5.624;2022-11-21T06:40:56;4.70;99.90
25450;DHT22;13371;52.080;5.624;2022-11-21T06:43:22;4.60;99.90
25450;DHT22;13371;52.080;5.624;2022-11-21T06:45:48;5.00;99.90
25450;DHT22;13371;52.080;5.624;2022-11-21T06:48:13;4.70;99.90
25450;DHT22;13371;52.080;5.624;2022-11-21T06:50:39;4.40;99.90
25450;DHT22;13371;52.080;5.624;2022-11-21T06:53:04;4.60;99.90
25450;DHT22;13371;52.080;5.624;2022-11-21T06:55:30;4.60;99.90
25450;DHT22;13371;52.080;5.624;2022-11-21T06:57:57;4.90;99.90
25450;DHT22;13371;52.080;5.624;2022-11-21T07:00:24;5.00;99.90
25450;DHT22;13371;52.080;5.624;2022-11-21T07:02:49;4.90;99.90
25450;DHT22;13371;52.080;5.624;2022-11-21T07:05:15;4.70;99.90
25450;DHT22;13371;52.080;5.624;2022-11-21T07:07:41;4.60;99.90
25450;DHT22;13371;52.080;5.624;2022-11-21T07:10:06;4.80;99.90
25450;DHT22;13371;52.080;5.624;2022-11-21T07:12:33;4.90;99.90
25450;DHT22;13371;52.080;5.624;2022-11-21T07:15:18;4.80;99.90
25450;DHT22;13371;52.080;5.624;2022-11-21T07:17:43;4.40;99.90
25450;DHT22;13371;52.080;5.624;2022-11-21T07:20:09;4.80;99.90
25450;DHT22;13371;52.080;5.624;2022-11-21T07:22:35;4.30;99.90
25450;DHT22;13371;52.080;5.624;2022-11-21T07:25:01;4.70;99.90
25450;DHT22;13371;52.080;5.624;2022-11-21T07:27:26;4.90;99.90
25450;DHT22;13371;52.080;5.624;2022-11-21T07:29:52;4.80;99.90
25450;DHT22;13371;52.080;5.624;2022-11-21T07:32:17;4.50;99.90
25450;DHT22;13371;52.080;5.624;2022-11-21T07:34:43;4.60;99.90
25450;DHT22;13371;52.080;5.624;2022-11-21T07:37:08;4.90;99.90
25450;DHT22;13371;52.080;5.624;2022-11-21T07:39:34;5.00;99.90
25450;DHT22;13371;52.080;5.624;2022-11-21T07:42:00;5.00;99.90
25450;DHT22;13371;52.080;5.624;2022-11-21T07:44:25;4.70;99.90
25450;DHT22;13371;52.080;5.624;2022-11-21T07:46:54;5.00;99.90
25450;DHT22;13371;52.080;5.624;2022-11-21T07:49:20;5.40;99.90
25450;DHT22;13371;52.080;5.624;2022-11-21T07:51:46;5.20;99.90
25450;DHT22;13371;52.080;5.624;2022-11-21T07:54:12;5.60;99.90
25450;DHT22;13371;52.080;5.624;2022-11-21T07:56:37;6.10;99.90
25450;DHT22;13371;52.080;5.624;2022-11-21T07:59:03;6.00;99.90
25450;DHT22;13371;52.080;5.624;2022-11-21T08:01:28;6.40;99.90
25450;DHT22;13371;52.080;5.624;2022-11-21T08:03:54;6.60;99.90
25450;DHT22;13371;52.080;5.624;2022-11-21T08:06:19;6.40;99.90
25450;DHT22;13371;52.080;5.624;2022-11-21T08:08:45;6.60;99.90
25450;DHT22;13371;52.080;5.624;2022-11-21T08:11:10;6.20;99.90
25450;DHT22;13371;52.080;5.624;2022-11-21T08:13:36;6.00;99.90
25450;DHT22;13371;52.080;5.624;2022-11-21T08:16:02;5.70;99.90
25450;DHT22;13371;52.080;5.624;2022-11-21T08:18:28;5.30;99.90
25450;DHT22;13371;52.080;5.624;2022-11-21T08:20:54;5.40;99.90
25450;DHT22;13371;52.080;5.624;2022-11-21T08:23:20;5.10;99.90
25450;DHT22;13371;52.080;5.624;2022-11-21T08:25:46;5.00;99.90
25450;DHT22;13371;52.080;5.624;2022-11-21T08:28:12;5.30;99.90
25450;DHT22;13371;52.080;5.624;2022-11-21T08:30:38;5.70;99.90
25450;DHT22;13371;52.080;5.624;2022-11-21T08:33:05;5.80;99.90
25450;DHT22;13371;52.080;5.624;2022-11-21T08:35:31;5.80;99.90
25450;DHT22;13371;52.080;5.624;2022-11-21T08:38:00;5.90;99.90
25450;DHT22;13371;52.080;5.624;2022-11-21T08:40:28;5.60;99.90
25450;DHT22;13371;52.080;5.624;2022-11-21T08:43:04;4.80;99.90
25450;DHT22;13371;52.080;5.624;2022-11-21T08:45:30;4.70;99.90
25450;DHT22;13371;52.080;5.624;2022-11-21T08:47:56;4.40;99.90
25450;DHT22;13371;52.080;5.624;2022-11-21T08:50:22;4.60;99.90
25450;DHT22;13371;52.080;5.624;2022-11-21T08:52:48;5.00;99.90
25450;DHT22;13371;52.080;5.624;2022-11-21T08:55:14;4.90;99.90
25450;DHT22;13371;52.080;5.624;2022-11-21T08:57:40;5.10;99.90
25450;DHT22;13371;52.080;5.624;2022-11-21T09:00:07;5.40;99.90
25450;DHT22;13371;52.080;5.624;2022-11-21T09:02:34;6.00;99.90
25450;DHT22;13371;52.080;5.624;2022-11-21T09:05:00;5.70;99.90
25450;DHT22;13371;52.080;5.624;2022-11-21T09:07:25;5.00;99.90
25450;DHT22;13371;52.080;5.624;2022-11-21T09:09:53;5.20;99.90
25450;DHT22;13371;52.080;5.624;2022-11-21T09:12:19;5.20;99.90
25450;DHT22;13371;52.080;5.624;2022-11-21T09:14:44;5.70;99.90
25450;DHT22;13371;52.080;5.624;2022-11-21T09:17:28;5.30;99.90
25450;DHT22;13371;52.080;5.624;2022-11-21T09:20:20;5.20;99.90
25450;DHT22;13371;52.080;5.624;2022-11-21T09:22:45;5.00;99.90
25450;DHT22;13371;52.080;5.624;2022-11-21T09:25:11;5.30;99.90
25450;DHT22;13371;52.080;5.624;2022-11-21T09:27:36;5.40;99.90
25450;DHT22;13371;52.080;5.624;2022-11-21T09:30:02;5.40;99.90
25450;DHT22;13371;52.080;5.624;2022-11-21T09:32:28;5.20;99.90
25450;DHT22;13371;52.080;5.624;2022-11-21T09:34:53;5.10;99.90
25450;DHT22;13371;52.080;5.624;2022-11-21T09:37:19;5.30;99.90
25450;DHT22;13371;52.080;5.624;2022-11-21T09:39:44;4.90;99.90
25450;DHT22;13371;52.080;5.624;2022-11-21T09:42:33;5.20;99.90
25450;DHT22;13371;52.080;5.624;2022-11-21T09:45:09;5.30;99.90
25450;DHT22;13371;52.080;5.624;2022-11-21T09:47:42;5.00;99.90
25450;DHT22;13371;52.080;5.624;2022-11-21T09:52:45;4.90;99.90
25450;DHT22;13371;52.080;5.624;2022-11-21T09:58:01;5.20;99.90
25450;DHT22;13371;52.080;5.624;2022-11-21T10:00:26;5.20;99.90
25450;DHT22;13371;52.080;5.624;2022-11-21T10:02:52;5.80;99.90
25450;DHT22;13371;52.080;5.624;2022-11-21T10:05:42;5.50;99.90
25450;DHT22;13371;52.080;5.624;2022-11-21T10:08:34;5.40;99.90
25450;DHT22;13371;52.080;5.624;2022-11-21T10:14:16;5.40;99.90
25450;DHT22;13371;52.080;5.624;2022-11-21T10:17:01;5.70;99.90
25450;DHT22;13371;52.080;5.624;2022-11-21T10:19:51;5.70;99.90
25450;DHT22;13371;52.080;5.624;2022-11-21T10:25:00;4.90;99.90
25450;DHT22;13371;52.080;5.624;2022-11-21T10:27:47;5.10;99.90
25450;DHT22;13371;52.080;5.624;2022-11-21T10:30:18;5.40;99.90
25450;DHT22;13371;52.080;5.624;2022-11-21T10:32:47;5.40;99.90
25450;DHT22;13371;52.080;5.624;2022-11-21T10:35:20;5.70;99.90
25450;DHT22;13371;52.080;5.624;2022-11-21T10:37:59;5.90;99.90
25450;DHT22;13371;52.080;5.624;2022-11-21T10:40:29;5.70;99.90
25450;DHT22;13371;52.080;5.624;2022-11-21T10:43:08;5.90;99.90
25450;DHT22;13371;52.080;5.624;2022-11-21T10:45:53;6.40;99.90
25450;DHT22;13371;52.080;5.624;2022-11-21T10:48:19;6.00;99.90
25450;DHT22;13371;52.080;5.624;2022-11-21T10:51:18;6.20;99.90
25450;DHT22;13371;52.080;5.624;2022-11-21T10:56:50;6.70;99.90
25450;DHT22;13371;52.080;5.624;2022-11-21T10:59:25;6.30;99.90
25450;DHT22;13371;52.080;5.624;2022-11-21T11:02:19;6.40;99.90
25450;DHT22;13371;52.080;5.624;2022-11-21T11:04:46;6.20;99.90
25450;DHT22;13371;52.080;5.624;2022-11-21T11:07:26;6.60;99.90
25450;DHT22;13371;52.080;5.624;2022-11-21T11:10:13;6.80;99.90
25450;DHT22;13371;52.080;5.624;2022-11-21T11:12:39;6.80;99.90
25450;DHT22;13371;52.080;5.624;2022-11-21T11:15:25;6.90;99.90
25450;DHT22;13371;52.080;5.624;2022-11-21T11:17:56;6.90;99.90
25450;DHT22;13371;52.080;5.624;2022-11-21T11:20:31;7.20;99.90
25450;DHT22;13371;52.080;5.624;2022-11-21T11:22:57;7.70;99.90
25450;DHT22;13371;52.080;5.624;2022-11-21T11:25:23;7.60;99.90
25450;DHT22;13371;52.080;5.624;2022-11-21T11:27:48;6.60;99.90
25450;DHT22;13371;52.080;5.624;2022-11-21T11:30:16;6.70;99.90
25450;DHT22;13371;52.080;5.624;2022-11-21T11:32:42;7.10;99.90
25450;DHT22;13371;52.080;5.624;2022-11-21T11:35:30;7.40;99.90
25450;DHT22;13371;52.080;5.624;2022-11-21T11:37:59;7.40;99.90
25450;DHT22;13371;52.080;5.624;2022-11-21T11:40:35;7.20;99.90
25450;DHT22;13371;52.080;5.624;2022-11-21T11:49:44;7.40;99.90
25450;DHT22;13371;52.080;5.624;2022-11-21T11:51:53;7.70;99.90
25450;DHT22;13371;52.080;5.624;2022-11-21T11:54:28;7.70;99.90
25450;DHT22;13371;52.080;5.624;2022-11-21T11:56:54;7.90;99.90
25450;DHT22;13371;52.080;5.624;2022-11-21T11:59:35;8.10;99.90
25450;DHT22;13371;52.080;5.624;2022-11-21T12:02:20;8.10;99.90
25450;DHT22;13371;52.080;5.624;2022-11-21T12:04:55;8.20;99.90
25450;DHT22;13371;52.080;5.624;2022-11-21T12:07:32;8.00;99.90
25450;DHT22;13371;52.080;5.624;2022-11-21T12:10:23;7.50;99.90
25450;DHT22;13371;52.080;5.624;2022-11-21T12:12:53;7.70;99.90
25450;DHT22;13371;52.080;5.624;2022-11-21T12:15:39;7.60;99.90
25450;DHT22;13371;52.080;5.624;2022-11-21T12:23:15;7.60;99.90
25450;DHT22;13371;52.080;5.624;2022-11-21T12:31:08;8.60;99.90
25450;DHT22;13371;52.080;5.624;2022-11-21T12:33:46;8.50;99.90
25450;DHT22;13371;52.080;5.624;2022-11-21T12:42:03;8.30;99.90
25450;DHT22;13371;52.080;5.624;2022-11-21T12:45:09;8.00;99.90
25450;DHT22;13371;52.080;5.624;2022-11-21T12:57:36;9.00;99.90
25450;DHT22;13371;52.080;5.624;2022-11-21T13:05:30;8.30;99.90
25450;DHT22;13371;52.080;5.624;2022-11-21T13:08:05;8.20;99.90
25450;DHT22;13371;52.080;5.624;2022-11-21T13:10:31;8.60;99.90
25450;DHT22;13371;52.080;5.624;2022-11-21T13:13:14;9.00;99.90
25450;DHT22;13371;52.080;5.624;2022-11-21T13:18:43;8.20;99.90
25450;DHT22;13371;52.080;5.624;2022-11-21T13:21:43;8.00;99.90
25450;DHT22;13371;52.080;5.624;2022-11-21T13:24:09;8.20;99.90
25450;DHT22;13371;52.080;5.624;2022-11-21T13:29:13;8.60;99.90
25450;DHT22;13371;52.080;5.624;2022-11-21T13:31:40;8.40;99.90
25450;DHT22;13371;52.080;5.624;2022-11-21T13:34:41;8.50;99.90
25450;DHT22;13371;52.080;5.624;2022-11-21T13:37:06;8.80;99.90
25450;DHT22;13371;52.080;5.624;2022-11-21T13:39:34;9.10;99.90
25450;DHT22;13371;52.080;5.624;2022-11-21T13:42:08;8.60;99.90
25450;DHT22;13371;52.080;5.624;2022-11-21T13:44:52;8.30;99.90
25450;DHT22;13371;52.080;5.624;2022-11-21T14:07:32;8.80;99.90
25450;DHT22;13371;52.080;5.624;2022-11-21T14:10:02;8.80;99.90
25450;DHT22;13371;52.080;5.624;2022-11-21T14:12:34;9.10;99.90
25450;DHT22;13371;52.080;5.624;2022-11-21T14:17:59;8.00;99.90
25450;DHT22;13371;52.080;5.624;2022-11-21T14:23:20;8.10;99.90
25450;DHT22;13371;52.080;5.624;2022-11-21T14:25:49;8.00;99.90
25450;DHT22;13371;52.080;5.624;2022-11-21T14:30:59;8.40;99.90
25450;DHT22;13371;52.080;5.624;2022-11-21T14:33:33;8.30;99.90
25450;DHT22;13371;52.080;5.624;2022-11-21T14:36:20;8.40;99.90
25450;DHT22;13371;52.080;5.624;2022-11-21T14:38:50;8.60;99.90
25450;DHT22;13371;52.080;5.624;2022-11-21T14:41:26;8.80;99.90
25450;DHT22;13371;52.080;5.624;2022-11-21T14:46:38;8.30;99.90
25450;DHT22;13371;52.080;5.624;2022-11-21T14:54:21;8.10;99.90
25450;DHT22;13371;52.080;5.624;2022-11-21T14:56:53;8.10;99.90
25450;DHT22;13371;52.080;5.624;2022-11-21T14:59:23;8.00;99.90
25450;DHT22;13371;52.080;5.624;2022-11-21T15:01:59;8.00;99.90
25450;DHT22;13371;52.080;5.624;2022-11-21T15:04:32;8.00;99.90
25450;DHT22;13371;52.080;5.624;2022-11-21T15:06:58;7.80;99.90
25450;DHT22;13371;52.080;5.624;2022-11-21T15:09:24;7.90;99.90
25450;DHT22;13371;52.080;5.624;2022-11-21T15:11:59;8.00;99.90
25450;DHT22;13371;52.080;5.624;2022-11-21T15:14:45;7.90;99.90
25450;DHT22;13371;52.080;5.624;2022-11-21T15:17:16;8.00;99.90
25450;DHT22;13371;52.080;5.624;2022-11-21T15:19:44;8.00;99.90
25450;DHT22;13371;52.080;5.624;2022-11-21T15:22:26;8.40;99.90
25450;DHT22;13371;52.080;5.624;2022-11-21T15:25:21;8.20;99.90
25450;DHT22;13371;52.080;5.624;2022-11-21T15:30:29;7.90;99.90
25450;DHT22;13371;52.080;5.624;2022-11-21T15:37:58;8.10;99.90
25450;DHT22;13371;52.080;5.624;2022-11-21T15:40:24;7.80;99.90
25450;DHT22;13371;52.080;5.624;2022-11-21T15:42:50;7.40;99.90
25450;DHT22;13371;52.080;5.624;2022-11-21T15:47:41;7.50;99.90
25450;DHT22;13371;52.080;5.624;2022-11-21T15:50:07;7.40;99.90
25450;DHT22;13371;52.080;5.624;2022-11-21T15:52:43;7.70;99.90
25450;DHT22;13371;52.080;5.624;2022-11-21T15:55:16;7.80;99.90
25450;DHT22;13371;52.080;5.624;2022-11-21T15:57:42;8.20;99.90
25450;DHT22;13371;52.080;5.624;2022-11-21T16:00:08;7.80;99.90
25450;DHT22;13371;52.080;5.624;2022-11-21T16:02:34;7.80;99.90
25450;DHT22;13371;52.080;5.624;2022-11-21T16:04:59;7.30;99.90
25450;DHT22;13371;52.080;5.624;2022-11-21T16:07:25;7.30;99.90
25450;DHT22;13371;52.080;5.624;2022-11-21T16:09:51;7.10;99.90
25450;DHT22;13371;52.080;5.624;2022-11-21T16:12:16;7.00;99.90
25450;DHT22;13371;52.080;5.624;2022-11-21T16:14:42;7.30;99.90
25450;DHT22;13371;52.080;5.624;2022-11-21T16:17:07;7.20;99.90
25450;DHT22;13371;52.080;5.624;2022-11-21T16:19:33;7.10;99.90
25450;DHT22;13371;52.080;5.624;2022-11-21T16:21:58;7.10;99.90
25450;DHT22;13371;52.080;5.624;2022-11-21T16:24:24;7.50;99.90
25450;DHT22;13371;52.080;5.624;2022-11-21T16:26:50;7.50;99.90
25450;DHT22;13371;52.080;5.624;2022-11-21T16:29:18;7.60;99.90
25450;DHT22;13371;52.080;5.624;2022-11-21T16:31:44;7.50;99.90
25450;DHT22;13371;52.080;5.624;2022-11-21T16:34:09;7.60;99.90
25450;DHT22;13371;52.080;5.624;2022-11-21T16:36:35;7.70;99.90
25450;DHT22;13371;52.080;5.624;2022-11-21T16:39:01;7.40;99.90
25450;DHT22;13371;52.080;5.624;2022-11-21T16:41:26;7.50;99.90
25450;DHT22;13371;52.080;5.624;2022-11-21T16:43:53;7.60;99.90
25450;DHT22;13371;52.080;5.624;2022-11-21T16:46:21;7.70;99.90
25450;DHT22;13371;52.080;5.624;2022-11-21T16:48:48;7.70;99.90
25450;DHT22;13371;52.080;5.624;2022-11-21T16:51:16;7.70;99.90
25450;DHT22;13371;52.080;5.624;2022-11-21T16:53:43;7.70;99.90
25450;DHT22;13371;52.080;5.624;2022-11-21T16:56:09;7.50;99.90
25450;DHT22;13371;52.080;5.624;2022-11-21T16:58:36;7.90;99.90
25450;DHT22;13371;52.080;5.624;2022-11-21T17:01:31;7.90;99.90
25450;DHT22;13371;52.080;5.624;2022-11-21T17:03:57;7.80;99.90
25450;DHT22;13371;52.080;5.624;2022-11-21T17:06:24;8.00;99.90
25450;DHT22;13371;52.080;5.624;2022-11-21T17:08:52;8.20;99.90
25450;DHT22;13371;52.080;5.624;2022-11-21T17:11:20;7.70;99.90
25450;DHT22;13371;52.080;5.624;2022-11-21T17:13:48;7.90;99.90
25450;DHT22;13371;52.080;5.624;2022-11-21T17:16:15;7.60;99.90
25450;DHT22;13371;52.080;5.624;2022-11-21T17:18:41;7.40;99.90
25450;DHT22;13371;52.080;5.624;2022-11-21T17:21:10;7.30;99.90
25450;DHT22;13371;52.080;5.624;2022-11-21T17:23:38;7.30;99.90
25450;DHT22;13371;52.080;5.624;2022-11-21T17:26:05;7.10;99.90
25450;DHT22;13371;52.080;5.624;2022-11-21T17:28:31;7.40;99.90
25450;DHT22;13371;52.080;5.624;2022-11-21T17:30:58;7.30;99.90
25450;DHT22;13371;52.080;5.624;2022-11-21T17:33:24;7.10;99.90
25450;DHT22;13371;52.080;5.624;2022-11-21T17:35:50;7.00;99.90
25450;DHT22;13371;52.080;5.624;2022-11-21T17:38:16;7.00;99.90
25450;DHT22;13371;52.080;5.624;2022-11-21T17:40:41;7.20;99.90
25450;DHT22;13371;52.080;5.624;2022-11-21T17:43:07;7.40;99.90
25450;DHT22;13371;52.080;5.624;2022-11-21T17:45:34;7.40;99.90
25450;DHT22;13371;52.080;5.624;2022-11-21T17:48:00;7.40;99.90
25450;DHT22;13371;52.080;5.624;2022-11-21T17:50:26;7.40;99.90